メインページ
METAR-TAF:

METAR-TAF

空港 :

マラボ, 赤道ギニア

マラボ国際空港

緯度: 03-45-18N, 経度: 08-42-31E, 海抜: 23m

現時点の気象観測

当レポートは50分前の01:00(UTC)に作成
南西の風 7kt
気温 23°C
湿度 83%
気圧 1011 hPa
視程: 8000m
高度1200ftの雲はほとんどない

METAR: FGSL 180100Z 23007KT 8000 FEW012 23/20 Q1011 NOSIG

時間: 02:50 (01:50 UTC)

予報

当レポートは2時間50分前の23:00(UTC)に作成
予報は18日の 00時(UTC)から 19日の 06時(UTC)まで有効
西/南西の風 6kt
視程: 7000m
高度1200ftの雲はほとんどない
18日の 02時(UTC)から 18日の 07時(UTC)まで一時的に
視程: 3000m
高度1000ftの千切れ雲あり
18日の 08時(UTC)から 18日の 10時(UTC)まで徐々に
視程: 4000m
高度1000ftの千切れ雲あり
高度2000ftの雲はほとんどない, 積乱雲.
激しい雷雨, 煙霧
18日の 12時(UTC)から 18日の 18時(UTC)まで一時的に
視程: 3000m
高度1200ftの雲は散在している
煙霧

TAF: FGSL 172300Z 1800/1906 24006KT 7000 FEW012 TEMPO 1802/1807 3000 BR BKN010 BECMG 1808/1810 4000 TS HZ BKN010 FEW020CB TEMPO 1812/1818 3000 HZ SCT012

4,000以上の空港の気象観測と天気予報(METAR報とTAF報)

利用可能な観測所は地図上に黄色い丸と赤い丸で示す。

丸の上にカーソルを重ねると観測所名を参照できる。

次にクリックすると気象観測と天気予報を参照できる。

マップの切り替え:黒色「×」印の緑ボタンをクリックして拡大、「-」印の緑ボタンをクリックして縮小、緑色の三角印をクリックして隣りの地図に切り替え


METAR-TAF: